Time;durP1;ratioP1;P1;durP2;ratioP2;P2;SDS_P1;SDS_P2;PMS_P1;PMS_P2;Temp;Humidity;BMP_temperature;BMP_pressure;BME280_temperature;BME280_humidity;BME280_pressure;Samples;Min_cycle;Max_cycle;Signal;HPM_P1;HPM_P2
2023/06/28 07:12:52;;;;;;;12.40;3.03;;;11.40;94.00;;;;;;6267337;22;20338;-72
2023/06/28 07:15:20;;;;;;;7.97;3.60;;;11.40;93.90;;;;;;6269902;22;20010;-75
2023/06/28 07:17:47;;;;;;;10.52;3.97;;;11.40;94.00;;;;;;6275059;22;20003;-72
2023/06/28 07:20:15;;;;;;;7.53;3.58;;;11.40;93.90;;;;;;6275215;22;20109;-72
2023/06/28 07:22:42;;;;;;;9.07;4.38;;;11.40;93.90;;;;;;6302580;22;20453;-72
2023/06/28 07:25:10;;;;;;;11.60;4.60;;;11.40;93.80;;;;;;6302990;22;20015;-72
2023/06/28 07:27:37;;;;;;;7.45;5.05;;;11.40;94.00;;;;;;6303445;22;20000;-68
2023/06/28 07:30:07;;;;;;;9.48;5.13;;;11.40;94.00;;;;;;6302872;22;20007;-71
2023/06/28 07:32:34;;;;;;;12.10;5.50;;;11.40;94.00;;;;;;6250288;22;20003;-71
2023/06/28 07:35:02;;;;;;;12.52;5.65;;;11.40;94.00;;;;;;6247926;22;20087;-70
2023/06/28 07:37:30;;;;;;;12.77;6.20;;;11.40;94.00;;;;;;6301468;22;20035;-70
2023/06/28 07:39:58;;;;;;;11.15;5.82;;;11.50;94.00;;;;;;6302859;22;20430;-72
2023/06/28 07:42:27;;;;;;;15.07;7.05;;;11.40;93.90;;;;;;6302972;22;20004;-74
2023/06/28 07:44:54;;;;;;;10.70;6.57;;;11.40;93.90;;;;;;6250705;22;20650;-73
2023/06/28 07:47:21;;;;;;;11.50;6.43;;;11.40;93.90;;;;;;6302948;22;20007;-72
2023/06/28 07:49:49;;;;;;;9.82;6.63;;;11.40;93.90;;;;;;6274136;22;20060;-71
2023/06/28 07:52:16;;;;;;;10.23;6.72;;;11.40;93.90;;;;;;6302779;22;20003;-73
2023/06/28 07:54:44;;;;;;;13.48;7.15;;;11.40;93.90;;;;;;6302975;22;20346;-69
2023/06/28 07:57:11;;;;;;;12.70;6.90;;;11.40;93.90;;;;;;6302489;22;20007;-70
2023/06/28 07:59:39;;;;;;;10.90;7.15;;;11.40;94.00;;;;;;6301818;22;20473;-73
2023/06/28 08:02:06;;;;;;;12.15;6.95;;;11.40;93.90;;;;;;6302315;22;19995;-72
2023/06/28 08:04:34;;;;;;;10.00;6.60;;;11.30;93.80;;;;;;6303304;22;20040;-72
2023/06/28 08:07:01;;;;;;;15.45;6.72;;;11.40;94.00;;;;;;6301818;22;20477;-72
2023/06/28 08:09:29;;;;;;;9.65;5.97;;;11.40;94.00;;;;;;6273130;22;19996;-76
2023/06/28 08:11:56;;;;;;;10.20;5.53;;;11.30;94.00;;;;;;6272425;22;20066;-72
2023/06/28 08:14:24;;;;;;;11.93;5.68;;;11.40;93.90;;;;;;6248772;22;20118;-75
2023/06/28 08:16:52;;;;;;;8.68;5.60;;;11.40;94.00;;;;;;6274872;22;20003;-73
2023/06/28 08:19:19;;;;;;;11.75;5.10;;;11.30;94.00;;;;;;6301910;22;20003;-74
2023/06/28 08:21:46;;;;;;;11.45;5.35;;;11.30;94.00;;;;;;6300119;22;20011;-73
2023/06/28 08:24:14;;;;;;;9.55;5.10;;;11.40;94.00;;;;;;6249480;22;19999;-72
2023/06/28 08:26:41;;;;;;;10.68;5.10;;;11.40;93.90;;;;;;6301360;22;20010;-72
2023/06/28 08:29:09;;;;;;;8.88;5.40;;;11.30;93.90;;;;;;6301829;22;20441;-76
2023/06/28 08:31:36;;;;;;;7.15;4.70;;;11.30;94.00;;;;;;6301046;22;20010;-72
2023/06/28 08:34:03;;;;;;;10.95;4.95;;;11.30;93.90;;;;;;6302696;22;19999;-72
2023/06/28 08:36:31;;;;;;;17.30;5.43;;;11.30;94.00;;;;;;6301779;22;20031;-73
2023/06/28 08:38:58;;;;;;;13.15;5.32;;;11.30;94.10;;;;;;6302121;22;20442;-72
2023/06/28 08:41:27;;;;;;;7.60;4.57;;;11.30;94.00;;;;;;6301912;22;20016;-74
2023/06/28 08:43:54;;;;;;;11.05;5.25;;;11.30;94.00;;;;;;6301968;22;20034;-74
2023/06/28 08:46:22;;;;;;;10.13;5.15;;;11.30;94.00;;;;;;6251463;22;20084;-72
2023/06/28 08:48:51;;;;;;;11.30;5.70;;;11.30;94.00;;;;;;6303871;22;20014;-71
2023/06/28 08:51:18;;;;;;;12.75;5.15;;;11.30;94.00;;;;;;6251348;22;20030;-72
2023/06/28 08:53:46;;;;;;;8.25;4.82;;;11.30;94.00;;;;;;6303853;22;20003;-73
2023/06/28 08:56:13;;;;;;;8.85;4.75;;;11.30;93.90;;;;;;6277257;22;20120;-73
2023/06/28 08:58:44;;;;;;;9.32;4.80;;;11.30;94.00;;;;;;6276985;22;20445;-73
2023/06/28 09:01:12;;;;;;;9.35;4.82;;;11.40;94.00;;;;;;6303998;22;20011;-73
2023/06/28 09:03:43;;;;;;;8.07;4.63;;;11.40;93.90;;;;;;6264412;22;20011;-72
2023/06/28 09:06:10;;;;;;;;;;;11.40;93.90;;;;;;6277469;22;20042;-72
2023/06/28 09:08:37;;;;;;;9.13;4.65;;;11.40;94.00;;;;;;6277431;22;19934;-72
2023/06/28 09:11:05;;;;;;;7.47;4.47;;;11.40;93.90;;;;;;6248951;22;20006;-72
2023/06/28 09:13:32;;;;;;;10.63;5.13;;;11.40;94.00;;;;;;6276848;22;20073;-72
2023/06/28 09:16:00;;;;;;;6.47;4.70;;;11.40;94.00;;;;;;6304665;22;20056;-72
2023/06/28 09:18:27;;;;;;;9.32;5.18;;;11.40;94.00;;;;;;6277270;22;20054;-72
2023/06/28 09:20:55;;;;;;;12.52;5.25;;;11.40;93.90;;;;;;6304500;22;20092;-73
2023/06/28 09:23:29;;;;;;;10.82;5.07;;;11.30;93.90;;;;;;6277659;22;20004;-72
2023/06/28 09:25:57;;;;;;;8.85;4.60;;;11.40;93.90;;;;;;6304255;22;19999;-73
2023/06/28 09:28:34;;;;;;;11.45;4.75;;;11.40;93.90;;;;;;6277731;22;20003;-73
2023/06/28 09:31:04;;;;;;;9.38;4.70;;;11.30;93.70;;;;;;6276756;22;20073;-72
2023/06/28 09:33:32;;;;;;;7.57;4.47;;;11.30;93.70;;;;;;6304739;22;20057;-71
2023/06/28 09:36:02;;;;;;;5.68;4.03;;;11.30;93.70;;;;;;6277840;22;19999;-70
2023/06/28 09:38:29;;;;;;;7.82;5.05;;;11.30;93.60;;;;;;6252091;22;20003;-71
2023/06/28 09:41:01;;;;;;;10.93;4.75;;;11.30;93.50;;;;;;6277098;22;20064;-70
2023/06/28 09:43:32;;;;;;;10.05;4.97;;;11.30;93.60;;;;;;6276914;22;20437;-69
2023/06/28 09:46:14;;;;;;;8.35;4.38;;;11.20;93.40;;;;;;6303942;22;20074;-71
2023/06/28 09:48:47;;;;;;;6.95;4.07;;;11.30;93.40;;;;;;6252206;22;20361;-70
2023/06/28 09:51:16;;;;;;;7.95;4.65;;;11.30;93.50;;;;;;6276672;22;20019;-71
2023/06/28 09:53:54;;;;;;;7.18;4.07;;;11.30;93.40;;;;;;6275983;22;20007;-70
2023/06/28 09:56:33;;;;;;;9.02;4.80;;;11.30;93.20;;;;;;6304398;22;20329;-70
2023/06/28 09:59:02;;;;;;;8.32;4.60;;;11.30;93.20;;;;;;6303570;22;20046;-69
2023/06/28 10:01:29;;;;;;;10.55;4.80;;;11.20;93.30;;;;;;6276914;22;20099;-68
2023/06/28 10:03:57;;;;;;;6.80;4.28;;;11.20;93.20;;;;;;6252217;22;19996;-68
2023/06/28 10:06:24;;;;;;;7.03;4.15;;;11.20;93.20;;;;;;6276421;22;20003;-68
2023/06/28 10:08:52;;;;;;;7.20;4.53;;;11.20;93.10;;;;;;6251665;22;20334;-68
2023/06/28 10:11:19;;;;;;;10.70;4.30;;;11.20;93.10;;;;;;6300855;22;20001;-71
2023/06/28 10:13:48;;;;;;;6.25;3.83;;;11.20;93.10;;;;;;6276076;22;20023;-70
2023/06/28 10:16:19;;;;;;;7.70;3.95;;;11.20;93.10;;;;;;6250980;22;19995;-71
2023/06/28 10:18:46;;;;;;;4.80;3.65;;;11.30;93.10;;;;;;6277233;22;20351;-70
2023/06/28 10:21:14;;;;;;;8.05;4.18;;;11.30;93.00;;;;;;6276460;22;20018;-69
2023/06/28 10:23:42;;;;;;;4.72;3.50;;;11.20;92.90;;;;;;6276813;22;20056;-69
2023/06/28 10:26:09;;;;;;;7.25;3.72;;;11.30;92.90;;;;;;6277031;22;20074;-69
2023/06/28 10:28:39;;;;;;;6.57;3.78;;;11.30;92.90;;;;;;6252258;22;20450;-70
2023/06/28 10:31:07;;;;;;;6.88;3.30;;;11.40;92.80;;;;;;6276055;22;20082;-69
2023/06/28 10:33:37;;;;;;;4.38;2.95;;;11.30;92.60;;;;;;6251726;22;20425;-69
2023/06/28 10:36:04;;;;;;;;;;;11.40;92.50;;;;;;6304331;22;20326;-69
2023/06/28 10:38:46;;;;;;;5.47;2.83;;;11.30;92.20;;;;;;6303350;22;20257;-69
2023/06/28 10:41:17;;;;;;;5.43;3.00;;;11.40;92.40;;;;;;6303230;22;20457;-68
2023/06/28 10:43:44;;;;;;;4.80;2.95;;;11.30;92.10;;;;;;6303813;22;20030;-69
2023/06/28 10:46:26;;;;;;;7.13;2.95;;;11.40;92.10;;;;;;6303618;22;20007;-69
2023/06/28 10:48:54;;;;;;;4.90;3.30;;;11.40;91.90;;;;;;6276454;22;20022;-70
2023/06/28 10:51:22;;;;;;;4.55;2.90;;;11.40;91.90;;;;;;6250904;22;20007;-71
2023/06/28 10:53:56;;;;;;;3.58;2.58;;;11.40;92.00;;;;;;6278130;22;20350;-70
2023/06/28 10:56:24;;;;;;;3.67;2.45;;;11.30;91.80;;;;;;6279383;22;20003;-71
2023/06/28 10:58:55;;;;;;;4.75;2.40;;;11.30;91.70;;;;;;6306260;22;20018;-72
2023/06/28 11:01:36;;;;;;;3.70;2.17;;;11.30;91.40;;;;;;6306151;22;20013;-71
2023/06/28 11:04:13;;;;;;;;;;;11.30;91.50;;;;;;6306688;22;20418;-70
2023/06/28 11:06:40;;;;;;;2.78;2.00;;;11.30;91.20;;;;;;6306591;22;19982;-71
2023/06/28 11:09:15;;;;;;;5.30;2.17;;;11.30;91.20;;;;;;6306125;22;19999;-71
2023/06/28 11:11:57;;;;;;;4.10;2.38;;;11.30;91.20;;;;;;6279858;22;20003;-71
2023/06/28 11:14:26;;;;;;;2.75;1.98;;;11.30;90.80;;;;;;6254885;22;20015;-71
2023/06/28 11:17:05;;;;;;;3.65;2.03;;;11.30;90.60;;;;;;6278834;22;20003;-70
2023/06/28 11:19:33;;;;;;;3.85;2.28;;;11.30;90.40;;;;;;6305551;22;20112;-69
2023/06/28 11:22:02;;;;;;;3.70;2.22;;;11.30;90.60;;;;;;6306632;22;20007;-69
2023/06/28 11:24:38;;;;;;;4.38;2.30;;;11.30;90.50;;;;;;6306451;22;20006;-70
2023/06/28 11:27:19;;;;;;;3.25;2.40;;;11.30;90.40;;;;;;6306260;22;20410;-69
2023/06/28 11:29:53;;;;;;;3.53;2.17;;;11.30;90.50;;;;;;6280290;22;19996;-70
2023/06/28 11:32:32;;;;;;;3.25;2.25;;;11.40;90.60;;;;;;6278941;22;20014;-71
2023/06/28 11:35:00;;;;;;;3.75;2.55;;;11.30;90.30;;;;;;6279530;22;20384;-71
2023/06/28 11:37:28;;;;;;;3.53;1.98;;;11.30;90.10;;;;;;6253741;22;20368;-71
2023/06/28 11:39:56;;;;;;;2.58;2.20;;;11.30;90.30;;;;;;6279202;22;20007;-70
2023/06/28 11:42:23;;;;;;;4.50;2.45;;;11.30;90.20;;;;;;6305950;22;19995;-69
2023/06/28 11:44:52;;;;;;;4.10;2.10;;;11.30;89.90;;;;;;6305882;22;20338;-70
2023/06/28 11:47:21;;;;;;;2.67;1.75;;;11.30;89.80;;;;;;6306427;22;20323;-69
2023/06/28 11:49:49;;;;;;;4.07;2.05;;;11.30;89.50;;;;;;6277816;22;20381;-70
2023/06/28 11:52:23;;;;;;;2.47;1.80;;;11.30;89.20;;;;;;6278560;22;20026;-69
2023/06/28 11:54:51;;;;;;;3.05;1.58;;;11.30;89.40;;;;;;6279025;22;19995;-69
2023/06/28 11:57:19;;;;;;;2.30;1.50;;;11.40;89.30;;;;;;6278199;22;20442;-70
2023/06/28 11:59:52;;;;;;;1.55;1.27;;;11.30;89.00;;;;;;6305274;22;20007;-70
2023/06/28 12:02:20;;;;;;;2.33;1.50;;;11.40;88.80;;;;;;6305681;22;20430;-69
2023/06/28 12:05:03;;;;;;;1.88;1.40;;;11.30;88.40;;;;;;6305800;22;20005;-70
2023/06/28 12:07:31;;;;;;;1.40;1.20;;;11.40;88.70;;;;;;6279618;22;20000;-70
2023/06/28 12:09:59;;;;;;;2.35;1.20;;;11.40;88.30;;;;;;6252596;22;20338;-71
2023/06/28 12:12:38;;;;;;;2.03;1.10;;;11.30;88.20;;;;;;6278435;22;20000;-70
2023/06/28 12:15:06;;;;;;;1.73;1.27;;;11.30;87.80;;;;;;6305419;22;20034;-71
2023/06/28 12:17:41;;;;;;;2.17;1.13;;;11.30;87.30;;;;;;6305790;22;20066;-71
2023/06/28 12:20:14;;;;;;;1.23;0.90;;;11.40;87.70;;;;;;6227786;22;20007;-71
2023/06/28 12:22:46;;;;;;;1.60;1.10;;;11.30;87.30;;;;;;6279480;22;20095;-71
2023/06/28 12:25:13;;;;;;;1.17;1.08;;;11.30;87.00;;;;;;6306118;22;20426;-71
2023/06/28 12:27:41;;;;;;;1.25;1.10;;;11.30;86.80;;;;;;6278819;22;20342;-71
2023/06/28 12:30:10;;;;;;;1.02;0.82;;;11.30;86.70;;;;;;6306144;22;20411;-71
2023/06/28 12:32:44;;;;;;;1.10;1.00;;;11.30;86.90;;;;;;6279802;22;20312;-71
2023/06/28 12:35:31;;;;;;;2.53;1.08;;;11.30;86.90;;;;;;6279720;22;19995;-70
2023/06/28 12:38:01;;;;;;;2.55;1.20;;;11.30;86.20;;;;;;6278591;22;20007;-71
2023/06/28 12:40:31;;;;;;;0.80;0.80;;;11.20;86.00;;;;;;6279562;22;20017;-71
2023/06/28 12:43:21;;;;;;;2.85;1.40;;;11.30;86.50;;;;;;6306283;22;20023;-71
2023/06/28 12:45:53;;;;;;;1.43;1.10;;;11.30;86.30;;;;;;6280302;22;20015;-71
2023/06/28 12:48:21;;;;;;;1.80;1.10;;;11.30;85.70;;;;;;6305653;22;19999;-71
2023/06/28 12:50:51;;;;;;;2.67;1.15;;;11.30;86.50;;;;;;6278773;22;20430;-71
2023/06/28 12:53:18;;;;;;;1.80;0.90;;;11.30;86.30;;;;;;6279489;22;20074;-71
2023/06/28 12:55:46;;;;;;;3.42;1.20;;;11.30;85.80;;;;;;6305522;22;20326;-71
2023/06/28 12:58:13;;;;;;;1.75;1.20;;;11.30;86.10;;;;;;6279150;22;20002;-71
2023/06/28 13:00:44;;;;;;;2.58;1.30;;;11.30;86.00;;;;;;6278904;22;20098;-71
2023/06/28 13:03:12;;;;;;;1.42;1.10;;;11.30;86.10;;;;;;6306395;22;20326;-71
2023/06/28 13:05:41;;;;;;;1.88;1.00;;;11.30;86.20;;;;;;6279381;22;20007;-71
2023/06/28 13:08:11;;;;;;;4.35;1.00;;;11.30;86.00;;;;;;6228294;22;19999;-71
2023/06/28 13:10:41;;;;;;;2.75;1.00;;;11.30;86.10;;;;;;6255044;22;20023;-71
2023/06/28 13:13:09;;;;;;;1.10;1.00;;;11.30;85.80;;;;;;6306111;22;20011;-71
2023/06/28 13:15:36;;;;;;;2.15;1.20;;;11.30;86.00;;;;;;6306063;22;20007;-71
2023/06/28 13:18:04;;;;;;;1.42;1.30;;;11.30;86.20;;;;;;6279181;22;19999;-71
2023/06/28 13:20:32;;;;;;;1.40;1.30;;;11.30;86.20;;;;;;6305732;22;20442;-71
2023/06/28 13:22:59;;;;;;;1.73;1.30;;;11.30;86.10;;;;;;6306343;22;20003;-71
2023/06/28 13:25:27;;;;;;;1.70;1.42;;;11.30;86.00;;;;;;6278511;22;20006;-71
2023/06/28 13:27:54;;;;;;;1.75;1.40;;;11.30;86.20;;;;;;6278978;22;20003;-71
2023/06/28 13:30:22;;;;;;;2.03;1.45;;;11.30;86.20;;;;;;6305999;22;20067;-71
2023/06/28 13:32:49;;;;;;;2.05;1.30;;;11.30;85.90;;;;;;6281155;22;20010;-71
2023/06/28 13:35:17;;;;;;;1.95;1.25;;;11.30;86.40;;;;;;6281356;22;20422;-71
2023/06/28 13:37:45;;;;;;;2.58;1.20;;;11.30;86.10;;;;;;6279985;22;19999;-71
2023/06/28 13:40:14;;;;;;;2.25;1.50;;;11.30;86.10;;;;;;6307657;22;20023;-71
2023/06/28 13:42:43;;;;;;;2.85;1.40;;;11.30;86.00;;;;;;6307935;22;20322;-71
2023/06/28 13:45:12;;;;;;;3.05;1.65;;;11.30;86.10;;;;;;6281629;22;20007;-71
2023/06/28 13:47:39;;;;;;;2.22;1.40;;;11.30;86.30;;;;;;6307490;22;20000;-71
2023/06/28 13:50:07;;;;;;;4.13;2.13;;;11.30;86.30;;;;;;6280633;22;20389;-71
2023/06/28 13:52:35;;;;;;;3.00;2.00;;;11.30;86.50;;;;;;6280756;22;19995;-71
2023/06/28 13:55:03;;;;;;;2.45;1.67;;;11.30;86.50;;;;;;6307586;22;20048;-70
2023/06/28 13:57:31;;;;;;;2.78;1.80;;;11.30;86.20;;;;;;6307357;22;20006;-71
2023/06/28 13:59:58;;;;;;;2.88;1.90;;;11.30;86.50;;;;;;6280731;22;20061;-71
2023/06/28 14:02:26;;;;;;;4.85;2.35;;;11.30;86.50;;;;;;6307838;22;20320;-71
2023/06/28 14:04:54;;;;;;;3.15;2.03;;;11.30;86.70;;;;;;6307814;22;20015;-71
2023/06/28 14:07:22;;;;;;;3.88;2.10;;;11.30;86.70;;;;;;6307151;22;20082;-71
2023/06/28 14:09:50;;;;;;;6.45;2.10;;;11.20;86.70;;;;;;6307592;22;20007;-71
2023/06/28 14:12:17;;;;;;;6.75;2.10;;;11.20;86.80;;;;;;6280638;22;19999;-70
2023/06/28 14:14:45;;;;;;;2.97;2.08;;;11.20;86.80;;;;;;6306995;22;20019;-71
2023/06/28 14:17:12;;;;;;;4.55;2.08;;;11.20;87.00;;;;;;6280331;22;20330;-71
2023/06/28 14:19:42;;;;;;;4.43;1.90;;;11.30;86.60;;;;;;6280615;22;20047;-71
2023/06/28 14:22:09;;;;;;;2.78;2.05;;;11.20;86.70;;;;;;6281242;22;20010;-71
2023/06/28 14:24:38;;;;;;;6.65;2.15;;;11.20;86.90;;;;;;6281058;22;20038;-71
2023/06/28 14:27:06;;;;;;;2.10;1.90;;;11.20;86.60;;;;;;6280129;22;20000;-71
2023/06/28 14:29:33;;;;;;;5.05;2.05;;;11.20;86.30;;;;;;6254858;22;20011;-71
2023/06/28 14:32:01;;;;;;;5.25;2.10;;;11.20;86.40;;;;;;6307463;22;20078;-71
2023/06/28 14:34:28;;;;;;;4.78;2.20;;;11.20;86.30;;;;;;6279599;22;20043;-71
2023/06/28 14:36:56;;;;;;;3.95;2.00;;;11.10;86.60;;;;;;6307117;22;20053;-71
2023/06/28 14:39:24;;;;;;;2.30;1.63;;;11.10;86.30;;;;;;6307198;22;20006;-71
2023/06/28 14:41:51;;;;;;;2.38;1.83;;;11.10;86.20;;;;;;6280152;22;20010;-71
2023/06/28 14:44:19;;;;;;;3.35;1.90;;;11.00;86.40;;;;;;6279975;22;20071;-70
2023/06/28 14:46:46;;;;;;;4.85;2.05;;;11.00;86.60;;;;;;6306163;22;20000;-70
2023/06/28 14:49:13;;;;;;;2.20;1.80;;;11.00;87.00;;;;;;6307179;22;19999;-70
2023/06/28 14:51:41;;;;;;;3.03;1.92;;;11.00;87.10;;;;;;6255174;22;20003;-71
2023/06/28 14:54:08;;;;;;;4.38;2.10;;;11.00;87.00;;;;;;6279975;22;20014;-70
2023/06/28 14:56:36;;;;;;;3.05;1.85;;;10.90;86.90;;;;;;6306623;22;20323;-70
2023/06/28 14:59:03;;;;;;;3.35;1.70;;;11.00;86.60;;;;;;6254044;22;20007;-70
2023/06/28 15:01:31;;;;;;;2.13;1.63;;;10.80;86.40;;;;;;6307028;22;20015;-71
2023/06/28 15:03:58;;;;;;;1.73;1.30;;;10.90;86.10;;;;;;6280443;22;20006;-70
2023/06/28 15:06:26;;;;;;;1.80;1.30;;;10.80;85.90;;;;;;6279279;22;20003;-70
2023/06/28 15:08:53;;;;;;;2.88;1.38;;;10.90;85.30;;;;;;6277797;22;20003;-70
2023/06/28 15:11:21;;;;;;;1.77;1.20;;;10.90;85.60;;;;;;6279321;22;19999;-71
2023/06/28 15:13:48;;;;;;;1.48;1.00;;;10.80;84.80;;;;;;6279447;22;20015;-71
2023/06/28 15:16:16;;;;;;;4.97;1.40;;;10.90;85.10;;;;;;6306521;22;20280;-71
2023/06/28 15:18:43;;;;;;;1.33;0.93;;;10.90;85.10;;;;;;6307436;22;20373;-71
2023/06/28 15:21:10;;;;;;;1.00;0.90;;;10.90;84.50;;;;;;6279867;22;20194;-71
2023/06/28 15:23:38;;;;;;;0.80;0.70;;;10.80;84.30;;;;;;6306410;22;20380;-71
2023/06/28 15:26:05;;;;;;;1.65;1.05;;;10.80;84.20;;;;;;6306852;22;20074;-71
2023/06/28 15:28:33;;;;;;;0.80;0.80;;;10.80;84.20;;;;;;6306633;22;20338;-71
2023/06/28 15:31:00;;;;;;;1.08;0.98;;;10.80;84.30;;;;;;6306743;22;20010;-71
2023/06/28 15:33:28;;;;;;;1.52;0.93;;;10.80;83.90;;;;;;6306471;22;20045;-72
2023/06/28 15:35:55;;;;;;;1.02;0.90;;;10.80;84.40;;;;;;6306637;22;20061;-71
2023/06/28 15:38:23;;;;;;;0.77;0.70;;;10.70;83.40;;;;;;6306839;22;19995;-71
2023/06/28 15:40:50;;;;;;;1.52;0.70;;;10.70;83.90;;;;;;6280134;22;20034;-72
2023/06/28 15:43:18;;;;;;;0.75;0.60;;;10.70;83.40;;;;;;6306724;22;20019;-71
2023/06/28 15:45:45;;;;;;;0.95;0.52;;;10.70;83.90;;;;;;6279446;22;20422;-71
2023/06/28 15:48:13;;;;;;;1.20;0.80;;;10.70;84.00;;;;;;6279940;22;19999;-71
2023/06/28 15:50:40;;;;;;;0.90;0.75;;;10.70;83.00;;;;;;6306483;22;19999;-71
2023/06/28 15:53:08;;;;;;;0.52;0.52;;;10.70;82.80;;;;;;6278764;22;19999;-71
2023/06/28 15:55:35;;;;;;;1.02;0.80;;;10.70;83.50;;;;;;6306106;22;20007;-71
2023/06/28 15:58:03;;;;;;;0.70;0.70;;;10.70;83.20;;;;;;6306704;22;20329;-71
2023/06/28 16:00:30;;;;;;;1.95;0.70;;;10.70;82.60;;;;;;6306387;22;20060;-71
2023/06/28 16:02:57;;;;;;;1.35;0.60;;;10.70;83.10;;;;;;6254052;22;20380;-71
2023/06/28 16:05:25;;;;;;;0.60;0.60;;;10.70;83.00;;;;;;6306488;22;20056;-71
2023/06/28 16:07:52;;;;;;;0.85;0.70;;;10.70;83.30;;;;;;6279587;22;20077;-71
2023/06/28 16:10:24;;;;;;;0.85;0.65;;;10.70;82.80;;;;;;6279225;22;20393;-71
2023/06/28 16:12:51;;;;;;;0.98;0.80;;;10.70;83.20;;;;;;6255083;22;20023;-72
2023/06/28 16:15:19;;;;;;;0.70;0.70;;;10.70;83.60;;;;;;6254235;22;20377;-71
2023/06/28 16:17:46;;;;;;;2.28;0.93;;;10.70;83.20;;;;;;6279525;22;20003;-72
2023/06/28 16:20:14;;;;;;;1.05;0.60;;;10.70;83.00;;;;;;6279950;22;20035;-73
2023/06/28 16:22:42;;;;;;;1.42;0.75;;;10.70;82.90;;;;;;6279234;22;20026;-71
2023/06/28 16:25:09;;;;;;;2.25;0.88;;;10.70;82.90;;;;;;6306858;22;20335;-71
2023/06/28 16:27:37;;;;;;;2.03;1.10;;;10.70;82.30;;;;;;6279514;22;20010;-71
2023/06/28 16:30:05;;;;;;;0.90;0.70;;;10.70;82.00;;;;;;6306247;22;20053;-72
2023/06/28 16:32:32;;;;;;;3.75;0.65;;;10.60;82.40;;;;;;6305536;22;20007;-71
2023/06/28 16:34:59;;;;;;;1.55;0.85;;;10.70;82.40;;;;;;6279071;22;20410;-72
2023/06/28 16:37:27;;;;;;;0.77;0.52;;;10.70;82.30;;;;;;6279596;22;20010;-72
2023/06/28 16:39:54;;;;;;;0.65;0.65;;;10.60;82.10;;;;;;6305868;22;20437;-72
2023/06/28 16:42:22;;;;;;;0.60;0.60;;;10.60;82.10;;;;;;6305641;22;20086;-72
2023/06/28 16:44:49;;;;;;;0.98;0.75;;;10.60;82.10;;;;;;6306417;22;20074;-71
2023/06/28 16:47:16;;;;;;;1.65;0.70;;;10.60;82.00;;;;;;6305805;22;20007;-71
2023/06/28 16:49:44;;;;;;;1.25;0.70;;;10.60;82.00;;;;;;6305826;22;20011;-71
2023/06/28 16:52:11;;;;;;;0.75;0.60;;;10.50;81.70;;;;;;6278395;22;20077;-72
2023/06/28 16:54:39;;;;;;;1.25;0.80;;;10.50;81.70;;;;;;6278751;22;20003;-71
2023/06/28 16:57:06;;;;;;;0.77;0.70;;;10.50;81.90;;;;;;6306099;22;20026;-71
2023/06/28 16:59:34;;;;;;;0.98;0.75;;;10.40;81.70;;;;;;6278924;22;19999;-71
2023/06/28 17:02:01;;;;;;;2.08;1.00;;;10.40;81.80;;;;;;6306280;22;20003;-71
2023/06/28 17:04:29;;;;;;;1.90;1.00;;;10.40;81.50;;;;;;6279206;22;20010;-72
2023/06/28 17:06:56;;;;;;;1.50;1.00;;;10.40;81.90;;;;;;6281147;22;20070;-72
2023/06/28 17:09:25;;;;;;;1.60;0.90;;;10.40;82.00;;;;;;6307744;22;20034;-71
2023/06/28 17:11:52;;;;;;;2.42;0.80;;;10.30;82.10;;;;;;6308013;22;20004;-72
2023/06/28 17:14:20;;;;;;;1.25;0.70;;;10.30;82.20;;;;;;6308054;22;20023;-71
2023/06/28 17:16:47;;;;;;;0.77;0.73;;;10.30;82.20;;;;;;6308240;22;20017;-72
2023/06/28 17:19:15;;;;;;;1.40;0.90;;;10.30;82.00;;;;;;6280884;22;20004;-72
2023/06/28 17:21:42;;;;;;;2.80;0.80;;;10.20;81.90;;;;;;6307913;22;20035;-72
2023/06/28 17:24:10;;;;;;;1.23;0.90;;;10.20;82.20;;;;;;6307912;22;20003;-72
2023/06/28 17:26:37;;;;;;;0.70;0.70;;;10.20;82.10;;;;;;6308091;22;20026;-71
2023/06/28 17:29:05;;;;;;;0.98;0.77;;;10.20;82.20;;;;;;6281255;22;20002;-71
2023/06/28 17:31:33;;;;;;;1.00;0.75;;;10.20;82.30;;;;;;6281105;22;20000;-72
2023/06/28 17:34:00;;;;;;;1.50;0.90;;;10.20;82.30;;;;;;6280299;22;19999;-72
2023/06/28 17:36:29;;;;;;;1.27;0.93;;;10.20;82.90;;;;;;6307884;22;20070;-72
2023/06/28 17:38:56;;;;;;;0.73;0.60;;;10.10;83.20;;;;;;6281155;22;20034;-72
2023/06/28 17:41:23;;;;;;;0.80;0.70;;;10.10;83.20;;;;;;6307552;22;20018;-72
2023/06/28 17:43:51;;;;;;;2.45;0.98;;;10.10;83.50;;;;;;6307951;22;20000;-72
2023/06/28 17:46:18;;;;;;;2.13;0.77;;;10.10;83.00;;;;;;6307285;22;20025;-71
2023/06/28 17:48:46;;;;;;;0.80;0.80;;;10.10;83.30;;;;;;6307798;22;20000;-72
2023/06/28 17:51:13;;;;;;;1.70;1.00;;;10.10;83.10;;;;;;6307683;22;20003;-72
2023/06/28 17:53:41;;;;;;;4.55;0.77;;;10.00;82.40;;;;;;6308276;22;19995;-72
2023/06/28 17:56:08;;;;;;;1.23;0.80;;;10.00;82.50;;;;;;6307460;22;20368;-72
2023/06/28 17:58:37;;;;;;;0.70;0.70;;;10.00;82.20;;;;;;6255365;22;20003;-72
2023/06/28 18:01:04;;;;;;;1.10;0.80;;;10.00;82.50;;;;;;6307557;22;20011;-72
2023/06/28 18:03:32;;;;;;;4.28;0.90;;;10.00;82.10;;;;;;6306617;22;20049;-71
2023/06/28 18:05:59;;;;;;;0.80;0.60;;;9.90;81.80;;;;;;6307734;22;20015;-71
2023/06/28 18:08:28;;;;;;;1.05;0.77;;;10.00;81.70;;;;;;6255164;22;20437;-72
2023/06/28 18:10:56;;;;;;;1.33;0.80;;;10.00;81.90;;;;;;6280579;22;20078;-72
2023/06/28 18:13:23;;;;;;;0.80;0.60;;;10.00;81.90;;;;;;6306868;22;20015;-72
2023/06/28 18:15:50;;;;;;;1.02;0.57;;;10.00;81.60;;;;;;6307254;22;19999;-71
2023/06/28 18:18:18;;;;;;;0.80;0.70;;;10.10;81.20;;;;;;6306849;22;20033;-72
2023/06/28 18:20:45;;;;;;;0.95;0.63;;;10.00;81.10;;;;;;6280198;22;20011;-72
2023/06/28 18:23:13;;;;;;;2.97;0.80;;;10.00;80.70;;;;;;6306208;22;19999;-72
2023/06/28 18:25:40;;;;;;;0.50;0.50;;;10.00;80.90;;;;;;6306838;22;20004;-71
2023/06/28 18:28:08;;;;;;;0.75;0.52;;;10.00;80.70;;;;;;6307239;22;20118;-71
2023/06/28 18:30:35;;;;;;;1.15;0.70;;;10.00;80.70;;;;;;6307045;22;20341;-71
2023/06/28 18:33:03;;;;;;;0.80;0.60;;;10.00;80.60;;;;;;6279839;22;20014;-69
2023/06/28 18:35:33;;;;;;;1.02;0.60;;;10.00;80.70;;;;;;6253039;22;20011;-71
2023/06/28 18:38:02;;;;;;;0.60;0.60;;;10.00;80.30;;;;;;6279263;22;20430;-71
2023/06/28 18:40:29;;;;;;;0.57;0.43;;;10.00;80.50;;;;;;6278987;22;20393;-71
2023/06/28 18:42:57;;;;;;;0.60;0.60;;;10.00;80.20;;;;;;6279757;22;20003;-71
2023/06/28 18:45:25;;;;;;;0.80;0.68;;;10.00;80.00;;;;;;6279733;22;20030;-71
2023/06/28 18:47:52;;;;;;;1.02;0.57;;;10.00;79.90;;;;;;6279225;22;20334;-71
2023/06/28 18:50:19;;;;;;;0.50;0.50;;;10.00;79.80;;;;;;6253849;22;20007;-71
2023/06/28 18:52:47;;;;;;;0.50;0.50;;;10.00;79.80;;;;;;6279869;22;20007;-70
2023/06/28 18:55:16;;;;;;;0.85;0.68;;;10.00;79.50;;;;;;6306714;22;20002;-73
2023/06/28 18:57:43;;;;;;;0.60;0.60;;;10.00;79.50;;;;;;6278779;22;20003;-72
2023/06/28 19:00:11;;;;;;;0.93;0.90;;;10.00;79.40;;;;;;6279817;22;20073;-73
2023/06/28 19:02:39;;;;;;;1.00;0.90;;;10.00;79.60;;;;;;6279576;22;20504;-71
2023/06/28 19:05:06;;;;;;;3.10;1.02;;;10.00;79.30;;;;;;6279514;22;20011;-71
2023/06/28 19:07:34;;;;;;;0.65;0.65;;;10.00;79.40;;;;;;6279497;22;20049;-70
2023/06/28 19:10:02;;;;;;;0.50;0.45;;;10.00;79.50;;;;;;6279693;22;20004;-71
2023/06/28 19:12:29;;;;;;;0.57;0.57;;;9.90;79.30;;;;;;6306684;22;20366;-70
2023/06/28 19:14:56;;;;;;;0.88;0.60;;;9.90;79.30;;;;;;6279285;22;20023;-71
2023/06/28 19:17:24;;;;;;;1.17;0.70;;;9.90;79.50;;;;;;6305644;22;20011;-71
2023/06/28 19:19:51;;;;;;;0.95;0.70;;;9.90;79.10;;;;;;6279326;22;20003;-69
2023/06/28 19:22:19;;;;;;;0.68;0.68;;;9.90;79.20;;;;;;6306347;22;20026;-69
2023/06/28 19:24:47;;;;;;;0.80;0.50;;;9.90;79.10;;;;;;6279128;22;20461;-69
2023/06/28 19:27:14;;;;;;;0.70;0.70;;;9.80;79.50;;;;;;6306207;22;20334;-69
2023/06/28 19:29:42;;;;;;;1.80;0.65;;;9.80;79.70;;;;;;6279645;22;19999;-69
2023/06/28 19:32:09;;;;;;;2.70;0.68;;;9.80;79.40;;;;;;6279628;22;20092;-72
2023/06/28 19:34:37;;;;;;;0.88;0.50;;;9.80;79.60;;;;;;6279810;22;19995;-72
2023/06/28 19:37:04;;;;;;;1.48;0.85;;;9.80;79.50;;;;;;6305774;22;20038;-72
2023/06/28 19:39:32;;;;;;;0.80;0.67;;;9.80;79.10;;;;;;6279269;22;20003;-72
2023/06/28 19:41:59;;;;;;;0.60;0.50;;;9.80;79.10;;;;;;6278622;22;20006;-72
2023/06/28 19:44:27;;;;;;;0.68;0.60;;;9.80;78.80;;;;;;6306533;22;20003;-72
2023/06/28 19:46:54;;;;;;;3.20;0.80;;;9.80;79.10;;;;;;6306024;22;20008;-72
2023/06/28 19:49:22;;;;;;;5.50;0.82;;;9.80;78.80;;;;;;6306218;22;20017;-72
2023/06/28 19:51:49;;;;;;;0.63;0.50;;;9.90;79.00;;;;;;6306357;22;19995;-72
2023/06/28 19:54:17;;;;;;;1.95;0.55;;;9.90;78.60;;;;;;6254129;22;20003;-72
2023/06/28 19:56:44;;;;;;;0.60;0.60;;;9.90;78.00;;;;;;6278673;22;20350;-72
2023/06/28 19:59:12;;;;;;;0.65;0.57;;;9.90;78.10;;;;;;6279665;22;20003;-72
2023/06/28 20:01:40;;;;;;;2.28;0.63;;;9.90;78.10;;;;;;6306770;22;20334;-70
2023/06/28 20:04:07;;;;;;;0.57;0.57;;;9.90;77.70;;;;;;6306799;22;20026;-70
2023/06/28 20:06:35;;;;;;;0.50;0.30;;;9.90;77.80;;;;;;6306003;22;20007;-70